Time;durP1;ratioP1;P1;durP2;ratioP2;P2;SDS_P1;SDS_P2;PMS_P1;PMS_P2;Temp;Humidity;BMP_temperature;BMP_pressure;BME280_temperature;BME280_humidity;BME280_pressure;Samples;Min_cycle;Max_cycle;Signal;HPM_P1;HPM_P2
2022/04/11 00:01:35;;;;;;;;;5.00;5.00;;;;;21.06;44.07;100857.18;110274;1264;18482;-54
2022/04/11 00:04:02;;;;;;;;;5.00;5.00;;;;;21.06;44.01;100861.14;110245;1264;22165;-56
2022/04/11 00:06:29;;;;;;;;;5.00;5.00;;;;;21.07;44.01;100863.55;110285;1264;19947;-54
2022/04/11 00:08:56;;;;;;;;;6.67;5.33;;;;;21.07;43.91;100863.95;110264;1264;23243;-56
2022/04/11 00:11:23;;;;;;;;;7.00;6.67;;;;;21.07;44.06;100862.36;110324;1265;18905;-54
2022/04/11 00:13:51;;;;;;;;;6.67;6.00;;;;;21.07;43.78;100864.75;110283;1265;19672;-53
2022/04/11 00:16:18;;;;;;;;;6.00;5.00;;;;;21.07;43.70;100865.96;110269;1264;19447;-53
2022/04/11 00:18:46;;;;;;;;;6.00;5.00;;;;;21.07;43.89;100872.71;110274;1264;18913;-53
2022/04/11 00:21:13;;;;;;;;;8.50;8.50;;;;;21.06;43.83;100872.23;110279;1264;19534;-52
2022/04/11 00:23:40;;;;;;;;;5.00;5.00;;;;;21.05;44.00;100873.09;110314;1264;18611;-54
2022/04/11 00:26:07;;;;;;;;;5.00;5.00;;;;;21.04;43.90;100876.30;110264;1265;21780;-54
2022/04/11 00:28:35;;;;;;;;;5.67;5.67;;;;;21.04;43.96;100874.27;110274;1264;33554;-57
2022/04/11 00:31:02;;;;;;;;;5.67;5.67;;;;;21.03;44.03;100881.27;110317;1264;18592;-54
2022/04/11 00:33:29;;;;;;;;;6.00;5.00;;;;;21.03;43.71;100881.80;110266;1264;20030;-53
2022/04/11 00:35:56;;;;;;;;;6.00;5.67;;;;;21.04;43.87;100880.04;110264;1264;19823;-53
2022/04/11 00:38:23;;;;;;;;;5.00;5.00;;;;;21.04;43.68;100885.05;110313;1264;18489;-51
2022/04/11 00:40:51;;;;;;;;;9.00;6.00;;;;;21.03;43.63;100884.36;110272;1264;18820;-51
2022/04/11 00:43:18;;;;;;;;;8.00;6.00;;;;;21.04;43.69;100885.39;110292;1264;19808;-56
2022/04/11 00:45:45;;;;;;;;;5.00;5.00;;;;;21.03;43.64;100883.63;110293;1262;18455;-56
2022/04/11 00:48:12;;;;;;;;;5.00;5.00;;;;;21.03;43.52;100886.89;110254;1264;18755;-52
2022/04/11 00:50:40;;;;;;;;;6.00;6.00;;;;;21.03;43.57;100887.42;110310;1264;19749;-53
2022/04/11 00:53:07;;;;;;;;;6.67;5.67;;;;;21.01;43.45;100890.23;110248;1264;18630;-56
2022/04/11 00:55:34;;;;;;;;;6.00;5.67;;;;;21.02;43.42;100891.55;110294;1264;20298;-55
2022/04/11 00:58:01;;;;;;;;;5.67;5.00;;;;;21.02;43.45;100890.63;110252;1264;21080;-54
2022/04/11 01:00:28;;;;;;;;;5.00;5.00;;;;;21.03;43.48;100893.27;110253;1264;21845;-56
2022/04/11 01:02:56;;;;;;;;;5.00;5.00;;;;;21.02;43.37;100892.81;110285;1264;19267;-54
2022/04/11 01:05:23;;;;;;;;;5.00;5.00;;;;;21.02;43.34;100896.55;110306;1264;19464;-55
2022/04/11 01:07:51;;;;;;;;;4.33;4.33;;;;;21.02;43.45;100900.82;110234;1264;18674;-54
2022/04/11 01:10:18;;;;;;;;;5.00;5.00;;;;;21.02;43.37;100902.83;110279;1264;19049;-53
2022/04/11 01:12:46;;;;;;;;;5.33;5.00;;;;;21.02;43.43;100899.64;110286;1264;20965;-54
2022/04/11 01:15:13;;;;;;;;;4.00;4.00;;;;;21.03;43.25;100900.89;110275;1265;20135;-54
2022/04/11 01:17:41;;;;;;;;;5.33;5.33;;;;;21.02;43.23;100900.99;110336;1265;18712;-55
2022/04/11 01:20:09;;;;;;;;;5.00;5.00;;;;;21.02;43.17;100898.64;110291;1262;19617;-55
2022/04/11 01:22:36;;;;;;;;;8.00;5.00;;;;;21.03;43.15;100903.89;110298;1264;18611;-54
2022/04/11 01:25:04;;;;;;;;;4.00;4.00;;;;;21.01;43.06;100904.02;110278;1264;18741;-54
2022/04/11 01:27:31;;;;;;;;;4.00;4.00;;;;;21.01;43.22;100898.75;110288;1264;19583;-55
2022/04/11 01:29:59;;;;;;;;;4.67;4.00;;;;;21.03;43.20;100904.94;110277;1264;18495;-56
2022/04/11 01:32:26;;;;;;;;;4.67;4.67;;;;;21.00;43.18;100904.73;110304;1264;22418;-55
2022/04/11 01:34:53;;;;;;;;;5.00;4.00;;;;;21.02;43.21;100905.59;110285;1264;19708;-53
2022/04/11 01:37:21;;;;;;;;;4.00;4.00;;;;;21.02;43.12;100909.41;110269;1264;18511;-55
2022/04/11 01:39:48;;;;;;;;;6.00;6.00;;;;;21.01;43.13;100912.10;110310;1264;25903;-58
2022/04/11 01:42:16;;;;;;;;;5.00;5.00;;;;;21.02;43.06;100916.13;110261;1264;19486;-56
2022/04/11 01:44:43;;;;;;;;;5.67;5.00;;;;;21.01;42.94;100919.70;110295;1264;20677;-56
2022/04/11 01:47:10;;;;;;;;;8.00;8.00;;;;;21.01;42.99;100921.47;110291;1264;18919;-53
2022/04/11 01:49:37;;;;;;;;;5.00;5.00;;;;;21.02;42.92;100921.77;110083;1264;19597;-57
2022/04/11 01:52:05;;;;;;;;;5.67;5.67;;;;;21.01;42.68;100927.27;110068;1265;24185;-51
2022/04/11 01:54:32;;;;;;;;;5.00;5.00;;;;;21.02;42.88;100931.63;110225;1264;18749;-57
2022/04/11 01:56:59;;;;;;;;;5.00;5.00;;;;;21.01;43.00;100933.36;110331;1265;19872;-51
2022/04/11 01:59:27;;;;;;;;;5.33;5.00;;;;;21.00;42.80;100938.64;110295;1264;18535;-54
2022/04/11 02:01:54;;;;;;;;;5.00;5.00;;;;;21.00;42.89;100944.14;110282;1264;33923;-53
2022/04/11 02:04:21;;;;;;;;;4.67;4.67;;;;;21.01;42.95;100945.90;110273;1264;19532;-53
2022/04/11 02:06:49;;;;;;;;;6.00;5.00;;;;;21.00;42.97;100945.79;110295;1264;19841;-56
2022/04/11 02:09:16;;;;;;;;;5.00;5.00;;;;;20.99;42.73;100945.87;110272;1264;18894;-53
2022/04/11 02:11:43;;;;;;;;;5.67;5.67;;;;;20.99;42.73;100944.83;110302;1264;19949;-54
2022/04/11 02:14:11;;;;;;;;;5.33;5.00;;;;;20.98;42.71;100944.00;110300;1264;24280;-55
2022/04/11 02:16:38;;;;;;;;;6.00;5.00;;;;;20.98;42.80;100945.83;110260;1265;18728;-56
2022/04/11 02:19:05;;;;;;;;;4.33;4.33;;;;;20.99;42.61;100942.12;110256;1264;21903;-53
2022/04/11 02:21:33;;;;;;;;;4.33;4.33;;;;;20.98;42.66;100945.08;110280;1264;18507;-53
2022/04/11 02:24:00;;;;;;;;;6.00;5.00;;;;;20.98;42.77;100948.21;110321;1265;21564;-54
2022/04/11 02:26:27;;;;;;;;;5.33;5.33;;;;;20.98;42.60;100946.72;110256;1265;19656;-54
2022/04/11 02:28:55;;;;;;;;;5.67;5.00;;;;;20.98;42.68;100942.77;110321;1264;22228;-56
2022/04/11 02:31:22;;;;;;;;;5.00;5.00;;;;;20.98;42.65;100945.45;110284;1264;18758;-56
2022/04/11 02:33:49;;;;;;;;;5.00;5.00;;;;;20.97;42.59;100949.23;110271;1264;19711;-55
2022/04/11 02:36:16;;;;;;;;;5.00;5.00;;;;;20.97;42.49;100947.60;110319;1265;18497;-53
2022/04/11 02:38:44;;;;;;;;;5.50;5.50;;;;;20.96;42.37;100945.45;110256;1264;18754;-57
2022/04/11 02:41:11;;;;;;;;;5.00;5.00;;;;;20.96;42.42;100944.77;110255;1264;19543;-57
2022/04/11 02:43:38;;;;;;;;;4.00;4.00;;;;;20.97;42.31;100946.10;110265;1264;18412;-54
2022/04/11 02:46:06;;;;;;;;;5.00;4.67;;;;;20.98;42.38;100948.17;110200;1264;24848;-54
2022/04/11 02:48:34;;;;;;;;;6.00;5.00;;;;;20.97;42.54;100941.64;110237;1265;19540;-53
2022/04/11 02:51:01;;;;;;;;;4.50;4.50;;;;;20.96;42.75;100945.29;110198;1264;18656;-54
2022/04/11 02:53:28;;;;;;;;;5.00;5.00;;;;;20.96;42.54;100943.11;110288;1264;19180;-53
2022/04/11 02:55:56;;;;;;;;;5.00;5.00;;;;;20.97;42.39;100942.13;110300;1265;19558;-55
2022/04/11 02:58:23;;;;;;;;;7.33;5.00;;;;;20.96;42.53;100943.72;110310;1264;18753;-55
2022/04/11 03:00:50;;;;;;;;;4.33;4.33;;;;;20.96;42.53;100943.69;110248;1265;22897;-56
2022/04/11 03:03:17;;;;;;;;;5.00;4.67;;;;;20.96;42.45;100941.00;110263;1264;19584;-54
2022/04/11 03:05:45;;;;;;;;;4.67;4.67;;;;;20.96;42.49;100940.46;110288;1264;22850;-51
2022/04/11 03:08:12;;;;;;;;;5.00;5.00;;;;;20.96;42.38;100941.00;110314;1264;19023;-54
2022/04/11 03:10:39;;;;;;;;;5.00;5.00;;;;;20.97;42.35;100947.77;110307;1264;19542;-55
2022/04/11 03:13:07;;;;;;;;;6.00;5.00;;;;;20.97;42.10;100943.20;110287;1265;18474;-54
2022/04/11 03:15:34;;;;;;;;;5.00;5.00;;;;;20.96;42.23;100939.88;110297;1264;22159;-55
2022/04/11 03:18:01;;;;;;;;;5.33;4.00;;;;;20.96;42.15;100942.02;110269;1264;19764;-56
2022/04/11 03:20:29;;;;;;;;;6.00;6.00;;;;;20.95;42.39;100942.67;110293;1264;18664;-56
2022/04/11 03:22:57;;;;;;;;;5.67;5.67;;;;;20.96;42.13;100948.39;110299;1264;18740;-53
2022/04/11 03:25:25;;;;;;;;;5.67;5.67;;;;;20.96;42.27;100950.10;110265;1264;22927;-55
2022/04/11 03:27:52;;;;;;;;;6.00;5.00;;;;;20.96;42.09;100952.03;110273;1264;18455;-54
2022/04/11 03:30:19;;;;;;;;;6.00;5.00;;;;;20.96;42.10;100952.48;110336;1264;21732;-55
2022/04/11 03:32:47;;;;;;;;;5.00;5.00;;;;;20.96;42.22;100955.54;110305;1264;19516;-54
2022/04/11 03:35:14;;;;;;;;;6.00;5.00;;;;;20.95;42.19;100953.95;110304;1264;23543;-54
2022/04/11 03:37:42;;;;;;;;;8.67;5.00;;;;;20.96;42.05;100951.66;110290;1264;18941;-54
2022/04/11 03:40:10;;;;;;;;;5.00;4.67;;;;;20.96;42.12;100949.31;110291;1265;19398;-53
2022/04/11 03:42:37;;;;;;;;;5.00;5.00;;;;;20.98;41.94;100956.35;110273;1265;22181;-54
2022/04/11 03:45:05;;;;;;;;;5.33;5.00;;;;;20.96;41.99;100954.93;110317;1264;21955;-51
2022/04/11 03:47:33;;;;;;;;;5.00;5.00;;;;;20.97;42.08;100953.45;110285;1264;19613;-52
2022/04/11 03:50:00;;;;;;;;;5.00;5.00;;;;;20.95;41.90;100953.86;110272;1264;18800;-53
2022/04/11 03:52:27;;;;;;;;;5.00;5.00;;;;;20.96;41.91;100959.56;110289;1264;18934;-54
2022/04/11 03:54:55;;;;;;;;;5.00;5.00;;;;;20.96;41.88;100960.98;110295;1264;19809;-54
2022/04/11 03:57:22;;;;;;;;;5.00;5.00;;;;;20.96;41.66;100961.70;110308;1263;20939;-54
2022/04/11 03:59:49;;;;;;;;;5.33;5.00;;;;;20.95;41.77;100961.95;110291;1265;18778;-54
2022/04/11 04:02:17;;;;;;;;;4.00;4.00;;;;;20.95;41.62;100960.70;110236;1265;21783;-52
2022/04/11 04:04:44;;;;;;;;;5.33;5.33;;;;;20.95;41.87;100961.85;110288;1264;18416;-53
2022/04/11 04:07:12;;;;;;;;;5.00;5.00;;;;;20.96;41.56;100962.84;110296;1265;18678;-56
2022/04/11 04:09:40;;;;;;;;;8.00;8.00;;;;;20.96;41.70;100963.67;110279;1263;21937;-56
2022/04/11 04:12:07;;;;;;;;;6.00;6.00;;;;;20.95;41.55;100965.09;110329;1264;21828;-53
2022/04/11 04:14:36;;;;;;;;;6.00;6.00;;;;;20.93;41.72;100965.29;110266;1265;18915;-55
2022/04/11 04:17:03;;;;;;;;;5.67;5.67;;;;;20.93;41.66;100966.34;110264;1264;21667;-54
2022/04/11 04:19:31;;;;;;;;;8.67;6.00;;;;;20.94;41.56;100970.50;110266;1264;18504;-55
2022/04/11 04:21:58;;;;;;;;;5.67;5.00;;;;;20.94;41.73;100974.33;110312;1264;23425;-55
2022/04/11 04:24:26;;;;;;;;;4.67;4.67;;;;;20.94;41.81;100975.21;110282;1264;19709;-57
2022/04/11 04:26:53;;;;;;;;;5.00;5.00;;;;;20.92;41.44;100979.55;110324;1265;18522;-54
2022/04/11 04:29:20;;;;;;;;;5.00;5.00;;;;;20.93;41.62;100981.27;110270;1264;21692;-54
2022/04/11 04:31:49;;;;;;;;;6.00;6.00;;;;;20.92;41.62;100982.79;110281;1264;22992;-55
2022/04/11 04:34:16;;;;;;;;;5.67;5.33;;;;;20.92;41.64;100984.60;110301;1263;23147;-56
2022/04/11 04:36:44;;;;;;;;;8.00;5.00;;;;;20.94;41.40;100991.59;110310;1264;18803;-52
2022/04/11 04:39:11;;;;;;;;;7.33;5.33;;;;;20.94;41.47;100995.37;110325;1264;22803;-53
2022/04/11 04:41:38;;;;;;;;;6.00;6.00;;;;;20.94;41.54;100990.13;110259;1264;18626;-54
2022/04/11 04:44:06;;;;;;;;;4.00;4.00;;;;;20.92;41.42;100990.26;110273;1264;19839;-53
2022/04/11 04:46:33;;;;;;;;;6.00;6.00;;;;;20.93;41.55;100987.50;110264;1265;19628;-53
2022/04/11 04:49:00;;;;;;;;;6.00;6.00;;;;;20.92;41.50;100990.80;110249;1264;18461;-54
2022/04/11 04:51:28;;;;;;;;;6.00;5.00;;;;;20.93;41.40;100991.80;110299;1264;21121;-59
2022/04/11 04:53:55;;;;;;;;;7.50;5.50;;;;;20.93;41.39;100992.38;110226;1264;19983;-52
2022/04/11 04:56:23;;;;;;;;;5.67;5.67;;;;;20.93;41.33;100994.52;110238;1264;18972;-55
2022/04/11 04:58:51;;;;;;;;;5.00;5.00;;;;;20.94;41.48;100997.59;110247;1264;19026;-52
2022/04/11 05:01:19;;;;;;;;;5.00;4.67;;;;;20.93;41.38;100998.30;110231;1264;22524;-54
2022/04/11 05:03:46;;;;;;;;;6.00;5.00;;;;;20.94;41.26;101005.11;110288;1264;18599;-53
2022/04/11 05:06:13;;;;;;;;;5.33;5.33;;;;;20.95;41.40;101007.98;110298;1264;23035;-53
2022/04/11 05:08:41;;;;;;;;;5.00;5.00;;;;;20.94;41.45;101008.79;110292;1264;19553;-53
2022/04/11 05:11:08;;;;;;;;;6.00;6.00;;;;;20.95;41.36;101014.30;110236;1264;19992;-57
2022/04/11 05:13:35;;;;;;;;;7.33;6.00;;;;;20.95;41.26;101012.34;110280;1264;18757;-53
2022/04/11 05:16:03;;;;;;;;;4.67;4.67;;;;;20.94;41.19;101014.42;110258;1264;20902;-54
2022/04/11 05:18:30;;;;;;;;;5.67;5.67;;;;;20.94;41.28;101015.26;110263;1264;18621;-60
2022/04/11 05:20:57;;;;;;;;;5.00;5.00;;;;;20.94;41.24;101019.83;110313;1265;18777;-57
2022/04/11 05:23:25;;;;;;;;;5.67;5.00;;;;;20.94;41.06;101024.60;110244;1265;20190;-55
2022/04/11 05:25:52;;;;;;;;;5.33;5.33;;;;;20.94;41.19;101022.28;110259;1264;18638;-53
2022/04/11 05:28:20;;;;;;;;;8.00;6.00;;;;;20.94;41.48;101029.50;110273;1264;23720;-54
2022/04/11 05:30:48;;;;;;;;;4.67;4.67;;;;;20.96;41.25;101034.77;110239;1264;19542;-54
2022/04/11 05:33:15;;;;;;;;;5.33;5.00;;;;;20.94;41.54;101032.05;110244;1264;22950;-59
2022/04/11 05:35:42;;;;;;;;;6.00;5.00;;;;;20.96;41.46;101038.86;110254;1264;18774;-55
2022/04/11 05:38:10;;;;;;;;;6.67;5.67;;;;;21.02;41.43;101039.98;110258;1265;20118;-55
2022/04/11 05:40:37;;;;;;;;;5.00;5.00;;;;;21.10;41.09;101038.75;110230;1264;18458;-56
2022/04/11 05:43:04;;;;;;;;;5.33;5.00;;;;;21.12;41.43;101038.23;110138;1264;19121;-59
2022/04/11 05:45:32;;;;;;;;;6.00;5.33;;;;;21.14;41.52;101035.33;110251;1264;19582;-57
2022/04/11 05:47:59;;;;;;;;;5.00;5.00;;;;;21.18;41.77;101036.98;110186;1264;18868;-54
2022/04/11 05:50:26;;;;;;;;;5.00;5.00;;;;;21.27;42.08;101041.09;110156;1264;20494;-51
2022/04/11 05:52:53;;;;;;;;;5.00;5.00;;;;;21.31;42.39;101038.83;110247;1264;19531;-53
2022/04/11 05:55:23;;;;;;;;;5.00;5.00;;;;;21.36;42.56;101043.86;110244;1264;18504;-56
2022/04/11 05:57:50;;;;;;;;;5.33;5.00;;;;;21.40;43.12;101041.42;110220;1264;20056;-56
2022/04/11 06:00:17;;;;;;;;;4.00;4.00;;;;;21.45;43.36;101042.13;110284;1264;19754;-56
2022/04/11 06:02:45;;;;;;;;;6.00;6.00;;;;;21.51;43.43;101042.73;110241;1264;18370;-57
2022/04/11 06:05:12;;;;;;;;;5.00;5.00;;;;;21.59;44.00;101046.86;110254;1265;19016;-54
2022/04/11 06:07:40;;;;;;;;;9.67;8.33;;;;;21.59;43.68;101048.13;110211;1264;19472;-56
2022/04/11 06:10:07;;;;;;;;;4.67;4.00;;;;;21.56;43.45;101050.35;110237;1264;18482;-56
2022/04/11 06:12:34;;;;;;;;;4.00;4.00;;;;;21.51;43.53;101045.80;110215;1264;18747;-62
2022/04/11 06:15:02;;;;;;;;;5.00;5.00;;;;;21.50;43.55;101047.58;110270;1265;20326;-55
2022/04/11 06:17:29;;;;;;;;;6.00;5.00;;;;;21.56;43.52;101048.00;109997;1264;268221;-55
2022/04/11 06:19:56;;;;;;;;;6.00;6.00;;;;;21.57;43.22;101050.16;110224;1264;18736;-55
2022/04/11 06:22:24;;;;;;;;;5.00;4.67;;;;;21.57;43.26;101051.67;110239;1264;19688;-56
2022/04/11 06:24:51;;;;;;;;;5.33;5.00;;;;;21.49;43.52;101046.23;110262;1264;18556;-60
2022/04/11 06:27:18;;;;;;;;;5.00;5.00;;;;;21.45;43.34;101052.08;110271;1265;18733;-52
2022/04/11 06:29:46;;;;;;;;;5.00;5.00;;;;;21.43;43.33;101051.44;110249;1264;19852;-57
2022/04/11 06:32:14;;;;;;;;;6.00;4.50;;;;;21.45;43.66;101057.02;110217;1264;18427;-55
2022/04/11 06:34:41;;;;;;;;;5.00;4.00;;;;;21.45;43.38;101059.34;110201;1264;22886;-55
2022/04/11 06:37:08;;;;;;;;;6.67;5.33;;;;;21.49;43.67;101063.84;110250;1264;19530;-57
2022/04/11 06:39:36;;;;;;;;;5.00;5.00;;;;;21.54;43.42;101063.38;110225;1264;23527;-60
2022/04/11 06:42:03;;;;;;;;;8.00;6.00;;;;;21.60;43.78;101062.10;110257;1264;18930;-54
2022/04/11 06:44:32;;;;;;;;;6.00;5.67;;;;;21.63;43.60;101063.73;110260;1264;19618;-53
2022/04/11 06:47:00;;;;;;;;;5.00;5.00;;;;;21.64;43.55;101067.41;110258;1264;22217;-59
2022/04/11 06:49:28;;;;;;;;;5.00;5.00;;;;;21.62;43.51;101067.14;110262;1264;18771;-52
2022/04/11 06:51:55;;;;;;;;;6.67;5.00;;;;;21.66;43.84;101072.52;110160;1264;19842;-56
2022/04/11 06:54:23;;;;;;;;;174.25;131.00;;;;;21.66;43.75;101074.67;110263;1262;18382;-56
2022/04/11 06:56:50;;;;;;;;;91.33;69.67;;;;;21.70;43.77;101074.95;110242;1261;22310;-60
2022/04/11 06:59:17;;;;;;;;;141.00;110.50;;;;;21.71;43.62;101075.78;110214;1264;19515;-55
2022/04/11 07:01:45;;;;;;;;;120.67;92.67;;;;;21.75;43.60;101069.46;110209;1264;18756;-55
2022/04/11 07:04:12;;;;;;;;;107.00;80.00;;;;;21.78;43.80;101073.95;110259;1264;23943;-58
2022/04/11 07:06:39;;;;;;;;;104.33;71.00;;;;;21.83;43.57;101072.30;110250;1264;19800;-55
2022/04/11 07:09:07;;;;;;;;;94.00;65.00;;;;;21.88;43.84;101069.04;110292;1264;19224;-56
2022/04/11 07:11:34;;;;;;;;;89.00;60.33;;;;;21.83;43.60;101067.17;110280;1264;18877;-57
2022/04/11 07:14:01;;;;;;;;;84.00;59.00;;;;;21.76;43.45;101069.10;110240;1264;19799;-57
2022/04/11 07:16:28;;;;;;;;;84.67;59.67;;;;;21.70;43.25;101074.05;110218;1264;18963;-56
2022/04/11 07:18:56;;;;;;;;;75.50;55.50;;;;;21.66;43.37;101077.41;110229;1264;22280;-55
2022/04/11 07:21:23;;;;;;;;;66.67;52.33;;;;;21.66;43.46;101079.58;110304;1264;19673;-55
2022/04/11 07:23:50;;;;;;;;;66.00;51.00;;;;;21.71;43.66;101087.48;110256;1265;22722;-57
2022/04/11 07:26:18;;;;;;;;;66.00;50.00;;;;;21.72;43.75;101082.53;110239;1264;18853;-57
2022/04/11 07:28:47;;;;;;;;;65.67;47.67;;;;;21.68;43.67;101079.75;110281;1264;21086;-54
2022/04/11 07:31:14;;;;;;;;;61.67;45.33;;;;;21.63;43.37;101083.54;110263;1264;19291;-58
2022/04/11 07:33:42;;;;;;;;;59.50;45.50;;;;;21.61;43.82;101083.45;110282;1264;18880;-53
2022/04/11 07:36:09;;;;;;;;;62.67;46.00;;;;;21.61;43.84;101084.98;110220;1264;19536;-53
2022/04/11 07:38:37;;;;;;;;;58.00;44.50;;;;;21.62;43.94;101084.16;110215;1264;18753;-54
2022/04/11 07:41:04;;;;;;;;;51.00;42.00;;;;;21.64;43.98;101090.29;110274;1264;22763;-52
2022/04/11 07:43:31;;;;;;;;;59.67;44.33;;;;;21.61;44.08;101090.98;110162;1264;19540;-53
2022/04/11 07:46:01;;;;;;;;;49.67;42.00;;;;;21.57;43.91;101087.85;110216;1264;18865;-53
2022/04/11 07:48:28;;;;;;;;;49.33;40.00;;;;;21.54;44.10;101090.05;112028;1264;18711;-53
2022/04/11 07:50:56;;;;;;;;;51.67;41.00;;;;;21.51;44.17;101089.43;110665;1264;19604;-53
2022/04/11 07:53:24;;;;;;;;;50.50;42.00;;;;;21.55;43.84;101090.98;110186;1264;19128;-52
2022/04/11 07:55:51;;;;;;;;;51.00;40.00;;;;;21.56;44.01;101089.73;110228;1264;22811;-55
2022/04/11 07:58:19;;;;;;;;;48.67;39.67;;;;;21.56;44.04;101089.35;110254;1264;19505;-52
2022/04/11 08:00:50;;;;;;;;;40.67;35.67;;;;;21.57;44.13;101093.14;110164;1264;19175;-55
2022/04/11 08:03:18;;;;;;;;;45.00;37.00;;;;;21.56;44.50;101093.24;110318;1264;22689;-55
2022/04/11 08:05:45;;;;;;;;;40.67;37.33;;;;;21.58;44.43;101098.20;110170;1264;19591;-52
2022/04/11 08:08:13;;;;;;;;;33.00;28.33;;;;;21.63;44.51;101097.04;110242;1264;27227;-52
2022/04/11 08:10:40;;;;;;;;;30.33;28.67;;;;;21.64;44.55;101103.11;110175;1264;18870;-57
2022/04/11 08:13:07;;;;;;;;;36.33;31.67;;;;;21.66;44.57;101101.81;110177;1264;20759;-54
2022/04/11 08:15:35;;;;;;;;;39.33;33.67;;;;;21.67;44.58;101101.09;110153;1264;18774;-53
2022/04/11 08:18:02;;;;;;;;;39.33;28.33;;;;;21.68;44.64;101101.87;110029;1264;20344;-59
2022/04/11 08:20:30;;;;;;;;;34.67;29.00;;;;;21.68;44.46;101106.86;110228;1264;19539;-51
2022/04/11 08:22:57;;;;;;;;;32.67;27.67;;;;;21.66;44.41;101106.30;110179;1264;22951;-57
2022/04/11 08:25:24;;;;;;;;;32.67;28.67;;;;;21.65;44.48;101106.23;110217;1264;18838;-51
2022/04/11 08:27:51;;;;;;;;;34.00;29.00;;;;;21.68;44.53;101105.36;110229;1264;20195;-57
2022/04/11 08:30:19;;;;;;;;;35.00;27.67;;;;;21.72;44.63;101111.83;110252;1264;18787;-53
2022/04/11 08:32:47;;;;;;;;;28.50;24.50;;;;;21.74;44.44;101111.55;110167;1264;18910;-54
2022/04/11 08:35:14;;;;;;;;;32.00;22.67;;;;;21.78;44.59;101108.02;110224;1264;19475;-55
2022/04/11 08:37:42;;;;;;;;;34.50;30.00;;;;;21.79;44.35;101109.52;110203;1264;22884;-56
2022/04/11 08:40:10;;;;;;;;;29.00;22.00;;;;;21.80;44.16;101106.52;110123;1264;19191;-54
2022/04/11 08:42:38;;;;;;;;;31.00;25.33;;;;;21.80;44.27;101108.83;110280;1264;19667;-59
2022/04/11 08:45:06;;;;;;;;;30.67;23.33;;;;;21.83;44.41;101108.15;110248;1264;18791;-53
2022/04/11 08:47:33;;;;;;;;;27.00;24.00;;;;;21.83;44.49;101106.57;110233;1264;18865;-55
2022/04/11 08:50:00;;;;;;;;;27.33;21.67;;;;;21.81;44.39;101106.77;110172;1264;19540;-57
2022/04/11 08:52:27;;;;;;;;;25.50;22.00;;;;;21.80;44.58;101111.80;110176;1264;23128;-53
2022/04/11 08:54:55;;;;;;;;;26.33;24.33;;;;;21.79;44.57;101111.02;110179;1264;18883;-57
2022/04/11 08:57:22;;;;;;;;;26.50;20.50;;;;;21.80;44.66;101105.59;110058;1265;20978;-53
2022/04/11 08:59:50;;;;;;;;;28.67;23.33;;;;;21.78;44.63;101103.49;110155;1264;18757;-59
2022/04/11 09:02:18;;;;;;;;;27.33;22.00;;;;;21.77;44.64;101100.48;110203;1264;18768;-55
2022/04/11 09:04:45;;;;;;;;;25.00;23.00;;;;;21.77;44.54;101104.82;110192;1263;22344;-54
2022/04/11 09:07:12;;;;;;;;;22.33;20.33;;;;;21.78;45.00;101102.60;110185;1264;18987;-53
2022/04/11 09:09:40;;;;;;;;;22.00;21.00;;;;;21.76;45.03;101100.77;110201;1264;19041;-53
2022/04/11 09:12:07;;;;;;;;;24.67;19.33;;;;;21.73;44.91;101106.23;110233;1265;19458;-56
2022/04/11 09:14:37;;;;;;;;;25.00;18.00;;;;;21.71;44.80;101101.56;110187;1262;18784;-53
2022/04/11 09:17:04;;;;;;;;;22.00;17.50;;;;;21.74;44.85;101102.13;110217;1264;22794;-54
2022/04/11 09:19:32;;;;;;;;;21.67;17.00;;;;;21.77;44.97;101097.79;110237;1264;21160;-53
2022/04/11 09:22:00;;;;;;;;;23.67;17.33;;;;;21.79;44.96;101100.98;110119;1264;18872;-54
2022/04/11 09:24:30;;;;;;;;;18.67;17.33;;;;;21.79;44.88;101102.67;110239;1264;22165;-52
2022/04/11 09:26:57;;;;;;;;;30.00;20.67;;;;;21.78;44.87;101102.73;110228;1264;23161;-56
2022/04/11 09:29:25;;;;;;;;;16.50;16.00;;;;;21.75;44.91;101100.69;110172;1264;18729;-52
2022/04/11 09:31:52;;;;;;;;;16.00;14.00;;;;;21.74;44.52;101103.94;110168;1265;22356;-55
2022/04/11 09:34:19;;;;;;;;;13.00;13.00;;;;;21.75;44.56;101102.91;110188;1264;19516;-57
2022/04/11 09:36:47;;;;;;;;;17.33;16.33;;;;;21.75;44.54;101107.27;110149;1264;22834;-57
2022/04/11 09:39:14;;;;;;;;;20.33;16.67;;;;;21.72;44.48;101105.96;110240;1265;18822;-54
2022/04/11 09:41:41;;;;;;;;;20.00;16.50;;;;;21.71;44.52;101107.73;110150;1264;19560;-57
2022/04/11 09:44:09;;;;;;;;;19.33;16.00;;;;;21.68;44.55;101111.11;110052;1264;18924;-54
2022/04/11 09:46:36;;;;;;;;;17.00;16.67;;;;;21.69;44.64;101113.55;110000;1264;18982;-53
2022/04/11 09:49:03;;;;;;;;;14.67;13.33;;;;;21.70;44.69;101107.33;110060;1264;19409;-55
2022/04/11 09:51:31;;;;;;;;;15.00;13.50;;;;;21.70;44.62;101101.90;110257;1264;24066;-53
2022/04/11 09:53:58;;;;;;;;;20.00;15.00;;;;;21.72;44.70;101109.27;110239;1264;18860;-53
2022/04/11 09:56:25;;;;;;;;;20.00;14.00;;;;;21.75;44.51;101109.94;110205;1264;19908;-52
2022/04/11 09:58:53;;;;;;;;;14.00;14.00;;;;;21.74;44.63;101105.51;110129;1265;18807;-51
2022/04/11 10:01:21;;;;;;;;;13.00;12.00;;;;;21.72;44.67;101105.61;110247;1264;18884;-52
2022/04/11 10:03:48;;;;;;;;;17.33;16.00;;;;;21.72;44.79;101102.73;110250;1264;22242;-51
2022/04/11 10:06:16;;;;;;;;;19.33;14.00;;;;;21.74;44.92;101101.58;109950;1264;18824;-57
2022/04/11 10:08:43;;;;;;;;;14.67;13.33;;;;;21.79;44.79;101104.30;110025;1264;18885;-54
2022/04/11 10:11:10;;;;;;;;;16.00;14.00;;;;;21.82;44.86;101100.84;110076;1265;19573;-53
2022/04/11 10:13:38;;;;;;;;;15.00;14.00;;;;;21.81;44.92;101098.92;110220;1264;21619;-54
2022/04/11 10:16:06;;;;;;;;;14.67;12.67;;;;;21.82;45.16;101101.12;110209;1264;18953;-53
2022/04/11 10:18:34;;;;;;;;;13.00;12.00;;;;;21.85;45.16;101096.51;110270;1264;19806;-53
2022/04/11 10:21:01;;;;;;;;;16.00;13.67;;;;;21.86;45.31;101091.55;110158;1264;19319;-56
2022/04/11 10:23:29;;;;;;;;;13.00;13.00;;;;;21.90;45.15;101096.50;110180;1264;19237;-55
2022/04/11 10:25:57;;;;;;;;;12.33;10.33;;;;;21.89;45.27;101098.38;110222;1264;19504;-56
2022/04/11 10:28:24;;;;;;;;;14.00;12.00;;;;;21.82;45.27;101096.61;110168;1262;18712;-56
2022/04/11 10:30:51;;;;;;;;;9.00;8.00;;;;;21.74;44.33;101093.88;110247;1265;20920;-55
2022/04/11 10:33:19;;;;;;;;;10.00;9.00;;;;;21.64;43.68;101094.31;110187;1265;19485;-57
2022/04/11 10:35:46;;;;;;;;;11.33;9.67;;;;;21.55;43.74;101099.38;110161;1264;22527;-57
2022/04/11 10:38:15;;;;;;;;;10.00;9.00;;;;;21.47;43.35;101102.94;110247;1264;18741;-55
2022/04/11 10:40:43;;;;;;;;;9.33;9.33;;;;;21.42;41.98;101104.09;110223;1264;21161;-53
2022/04/11 10:43:11;;;;;;;;;9.00;9.00;;;;;21.34;41.03;101099.55;110216;1265;19103;-55
2022/04/11 10:45:39;;;;;;;;;8.67;8.67;;;;;21.32;41.63;101098.70;110144;1264;19014;-58
2022/04/11 10:48:07;;;;;;;;;13.67;9.00;;;;;21.30;40.73;101092.02;110140;1264;21185;-56
2022/04/11 10:50:35;;;;;;;;;12.00;9.00;;;;;21.27;40.55;101097.16;110231;1264;18505;-53
2022/04/11 10:53:02;;;;;;;;;8.50;8.00;;;;;21.26;40.04;101100.41;110228;1265;18808;-55
2022/04/11 10:55:30;;;;;;;;;10.00;10.00;;;;;21.24;39.36;101099.57;110221;1264;19541;-54
2022/04/11 10:58:00;;;;;;;;;8.00;8.00;;;;;21.21;39.24;101100.38;110263;1264;21759;-53
2022/04/11 11:00:27;;;;;;;;;6.67;6.67;;;;;21.22;38.81;101106.38;110216;1264;22313;-53
2022/04/11 11:02:54;;;;;;;;;8.67;8.00;;;;;21.20;38.50;101105.75;110231;1264;19575;-59
2022/04/11 11:05:22;;;;;;;;;9.00;8.50;;;;;21.19;37.71;101100.52;110296;1264;18803;-53
2022/04/11 11:07:49;;;;;;;;;8.50;8.50;;;;;21.18;38.18;101102.96;110248;1264;18819;-52
2022/04/11 11:10:17;;;;;;;;;8.00;8.00;;;;;21.21;37.79;101102.48;110228;1264;19759;-56
2022/04/11 11:12:45;;;;;;;;;6.67;6.00;;;;;21.20;37.90;101106.14;110310;1265;19131;-53